sensor_id;sensor_type;location;lat;lon;timestamp;P1;durP1;ratioP1;P2;durP2;ratioP2
13611;SDS011;6877;51.436;6.774;2022-10-22T00:02:00;9.43;;;4.07;;
13611;SDS011;6877;51.436;6.774;2022-10-22T00:04:32;7.03;;;4.45;;
13611;SDS011;6877;51.436;6.774;2022-10-22T00:07:03;6.97;;;4.72;;
13611;SDS011;6877;51.436;6.774;2022-10-22T00:09:35;10.02;;;4.63;;
13611;SDS011;6877;51.436;6.774;2022-10-22T00:12:07;6.57;;;4.47;;
13611;SDS011;6877;51.436;6.774;2022-10-22T00:14:33;11.90;;;4.38;;
13611;SDS011;6877;51.436;6.774;2022-10-22T00:17:05;9.43;;;4.40;;
13611;SDS011;6877;51.436;6.774;2022-10-22T00:19:32;6.18;;;3.97;;
13611;SDS011;6877;51.436;6.774;2022-10-22T00:22:03;10.30;;;4.03;;
13611;SDS011;6877;51.436;6.774;2022-10-22T00:24:38;9.40;;;4.88;;
13611;SDS011;6877;51.436;6.774;2022-10-22T00:27:10;12.25;;;4.90;;
13611;SDS011;6877;51.436;6.774;2022-10-22T00:29:42;8.15;;;4.75;;
13611;SDS011;6877;51.436;6.774;2022-10-22T00:32:14;15.13;;;5.03;;
13611;SDS011;6877;51.436;6.774;2022-10-22T00:34:45;7.53;;;3.97;;
13611;SDS011;6877;51.436;6.774;2022-10-22T00:37:16;7.78;;;4.25;;
13611;SDS011;6877;51.436;6.774;2022-10-22T00:39:48;22.13;;;5.43;;
13611;SDS011;6877;51.436;6.774;2022-10-22T00:42:20;8.63;;;4.95;;
13611;SDS011;6877;51.436;6.774;2022-10-22T00:50:38;9.75;;;4.20;;
13611;SDS011;6877;51.436;6.774;2022-10-22T00:53:14;13.98;;;4.95;;
13611;SDS011;6877;51.436;6.774;2022-10-22T00:55:50;11.65;;;4.25;;
13611;SDS011;6877;51.436;6.774;2022-10-22T00:58:25;8.32;;;4.53;;
13611;SDS011;6877;51.436;6.774;2022-10-22T01:00:58;7.47;;;4.70;;
13611;SDS011;6877;51.436;6.774;2022-10-22T01:03:30;11.45;;;5.25;;
13611;SDS011;6877;51.436;6.774;2022-10-22T01:06:02;13.98;;;4.72;;
13611;SDS011;6877;51.436;6.774;2022-10-22T01:19:49;8.65;;;4.78;;
13611;SDS011;6877;51.436;6.774;2022-10-22T01:25:47;10.60;;;4.88;;
13611;SDS011;6877;51.436;6.774;2022-10-22T01:31:19;8.10;;;5.57;;
13611;SDS011;6877;51.436;6.774;2022-10-22T01:33:54;10.77;;;6.20;;
13611;SDS011;6877;51.436;6.774;2022-10-22T01:36:26;8.63;;;4.53;;
13611;SDS011;6877;51.436;6.774;2022-10-22T01:39:01;7.20;;;4.93;;
13611;SDS011;6877;51.436;6.774;2022-10-22T01:41:34;15.52;;;5.90;;
13611;SDS011;6877;51.436;6.774;2022-10-22T01:44:01;14.57;;;5.22;;
13611;SDS011;6877;51.436;6.774;2022-10-22T01:46:32;7.32;;;5.18;;
13611;SDS011;6877;51.436;6.774;2022-10-22T01:49:21;10.02;;;5.30;;
13611;SDS011;6877;51.436;6.774;2022-10-22T01:54:51;9.13;;;4.68;;
13611;SDS011;6877;51.436;6.774;2022-10-22T02:00:11;16.20;;;5.45;;
13611;SDS011;6877;51.436;6.774;2022-10-22T02:05:50;16.45;;;6.55;;
13611;SDS011;6877;51.436;6.774;2022-10-22T02:08:30;8.85;;;5.95;;
13611;SDS011;6877;51.436;6.774;2022-10-22T02:11:03;13.15;;;6.13;;
13611;SDS011;6877;51.436;6.774;2022-10-22T02:13:37;11.15;;;6.00;;
13611;SDS011;6877;51.436;6.774;2022-10-22T02:16:18;9.90;;;5.85;;
13611;SDS011;6877;51.436;6.774;2022-10-22T02:18:57;7.13;;;5.90;;
13611;SDS011;6877;51.436;6.774;2022-10-22T02:21:32;9.52;;;4.75;;
13611;SDS011;6877;51.436;6.774;2022-10-22T02:24:03;6.25;;;4.93;;
13611;SDS011;6877;51.436;6.774;2022-10-22T02:26:31;11.68;;;5.57;;
13611;SDS011;6877;51.436;6.774;2022-10-22T02:31:45;11.65;;;5.97;;
13611;SDS011;6877;51.436;6.774;2022-10-22T02:34:20;9.60;;;5.88;;
13611;SDS011;6877;51.436;6.774;2022-10-22T02:36:53;12.02;;;5.97;;
13611;SDS011;6877;51.436;6.774;2022-10-22T02:39:26;9.05;;;5.18;;
13611;SDS011;6877;51.436;6.774;2022-10-22T02:41:59;10.68;;;6.22;;
13611;SDS011;6877;51.436;6.774;2022-10-22T02:44:31;8.48;;;5.63;;
13611;SDS011;6877;51.436;6.774;2022-10-22T02:47:03;9.88;;;4.93;;
13611;SDS011;6877;51.436;6.774;2022-10-22T02:49:30;12.25;;;5.43;;
13611;SDS011;6877;51.436;6.774;2022-10-22T02:52:01;16.10;;;5.75;;
13611;SDS011;6877;51.436;6.774;2022-10-22T02:54:27;14.43;;;5.53;;
13611;SDS011;6877;51.436;6.774;2022-10-22T02:56:59;8.88;;;6.20;;
13611;SDS011;6877;51.436;6.774;2022-10-22T02:59:30;9.25;;;5.72;;
13611;SDS011;6877;51.436;6.774;2022-10-22T03:02:02;12.85;;;5.80;;
13611;SDS011;6877;51.436;6.774;2022-10-22T03:04:33;13.25;;;5.93;;
13611;SDS011;6877;51.436;6.774;2022-10-22T03:07:05;11.50;;;5.53;;
13611;SDS011;6877;51.436;6.774;2022-10-22T03:09:37;8.35;;;4.43;;
13611;SDS011;6877;51.436;6.774;2022-10-22T03:12:08;10.32;;;5.50;;
13611;SDS011;6877;51.436;6.774;2022-10-22T03:14:39;9.90;;;5.70;;
13611;SDS011;6877;51.436;6.774;2022-10-22T03:17:11;9.73;;;5.70;;
13611;SDS011;6877;51.436;6.774;2022-10-22T03:19:42;9.93;;;5.47;;
13611;SDS011;6877;51.436;6.774;2022-10-22T03:22:09;10.38;;;5.55;;
13611;SDS011;6877;51.436;6.774;2022-10-22T03:24:45;9.60;;;5.30;;
13611;SDS011;6877;51.436;6.774;2022-10-22T03:27:19;10.77;;;4.63;;
13611;SDS011;6877;51.436;6.774;2022-10-22T03:29:52;10.68;;;5.18;;
13611;SDS011;6877;51.436;6.774;2022-10-22T03:32:23;19.92;;;6.15;;
13611;SDS011;6877;51.436;6.774;2022-10-22T03:34:54;10.75;;;5.72;;
13611;SDS011;6877;51.436;6.774;2022-10-22T03:37:26;6.90;;;5.10;;
13611;SDS011;6877;51.436;6.774;2022-10-22T03:39:57;8.73;;;5.20;;
13611;SDS011;6877;51.436;6.774;2022-10-22T03:42:29;18.38;;;6.55;;
13611;SDS011;6877;51.436;6.774;2022-10-22T03:45:01;12.40;;;5.90;;
13611;SDS011;6877;51.436;6.774;2022-10-22T03:47:27;8.82;;;5.80;;
13611;SDS011;6877;51.436;6.774;2022-10-22T03:49:58;8.63;;;6.65;;
13611;SDS011;6877;51.436;6.774;2022-10-22T03:52:34;12.43;;;5.90;;
13611;SDS011;6877;51.436;6.774;2022-10-22T03:55:07;11.43;;;6.60;;
13611;SDS011;6877;51.436;6.774;2022-10-22T03:57:39;10.82;;;6.05;;
13611;SDS011;6877;51.436;6.774;2022-10-22T04:00:10;8.32;;;5.63;;
13611;SDS011;6877;51.436;6.774;2022-10-22T04:02:42;10.77;;;6.70;;
13611;SDS011;6877;51.436;6.774;2022-10-22T04:05:13;10.02;;;5.97;;
13611;SDS011;6877;51.436;6.774;2022-10-22T04:07:45;8.93;;;6.43;;
13611;SDS011;6877;51.436;6.774;2022-10-22T04:10:16;12.50;;;6.20;;
13611;SDS011;6877;51.436;6.774;2022-10-22T04:12:47;11.13;;;6.10;;
13611;SDS011;6877;51.436;6.774;2022-10-22T04:15:19;13.15;;;6.43;;
13611;SDS011;6877;51.436;6.774;2022-10-22T04:17:50;10.93;;;6.20;;
13611;SDS011;6877;51.436;6.774;2022-10-22T04:20:22;10.68;;;6.40;;
13611;SDS011;6877;51.436;6.774;2022-10-22T04:22:53;13.55;;;6.80;;
13611;SDS011;6877;51.436;6.774;2022-10-22T04:25:25;12.57;;;7.53;;
13611;SDS011;6877;51.436;6.774;2022-10-22T04:27:56;13.20;;;7.30;;
13611;SDS011;6877;51.436;6.774;2022-10-22T04:30:27;13.65;;;6.40;;
13611;SDS011;6877;51.436;6.774;2022-10-22T04:32:59;10.90;;;6.95;;
13611;SDS011;6877;51.436;6.774;2022-10-22T04:35:30;10.75;;;7.05;;
13611;SDS011;6877;51.436;6.774;2022-10-22T04:38:02;11.57;;;7.30;;
13611;SDS011;6877;51.436;6.774;2022-10-22T04:40:33;12.63;;;6.50;;
13611;SDS011;6877;51.436;6.774;2022-10-22T04:42:59;19.33;;;7.60;;
13611;SDS011;6877;51.436;6.774;2022-10-22T04:45:26;12.52;;;7.00;;
13611;SDS011;6877;51.436;6.774;2022-10-22T04:47:57;11.10;;;6.78;;
13611;SDS011;6877;51.436;6.774;2022-10-22T04:50:29;8.45;;;5.95;;
13611;SDS011;6877;51.436;6.774;2022-10-22T04:53:00;8.85;;;6.03;;
13611;SDS011;6877;51.436;6.774;2022-10-22T04:55:32;16.27;;;7.63;;
13611;SDS011;6877;51.436;6.774;2022-10-22T04:58:03;15.43;;;7.38;;
13611;SDS011;6877;51.436;6.774;2022-10-22T05:00:35;18.70;;;7.57;;
13611;SDS011;6877;51.436;6.774;2022-10-22T05:03:06;12.10;;;7.63;;
13611;SDS011;6877;51.436;6.774;2022-10-22T05:05:38;14.48;;;6.72;;
13611;SDS011;6877;51.436;6.774;2022-10-22T05:08:09;12.48;;;7.05;;
13611;SDS011;6877;51.436;6.774;2022-10-22T05:10:40;10.93;;;7.00;;
13611;SDS011;6877;51.436;6.774;2022-10-22T05:13:07;14.25;;;7.03;;
13611;SDS011;6877;51.436;6.774;2022-10-22T05:15:38;14.45;;;7.35;;
13611;SDS011;6877;51.436;6.774;2022-10-22T05:18:10;14.80;;;8.65;;
13611;SDS011;6877;51.436;6.774;2022-10-22T05:20:41;22.25;;;7.43;;
13611;SDS011;6877;51.436;6.774;2022-10-22T05:23:13;16.15;;;7.88;;
13611;SDS011;6877;51.436;6.774;2022-10-22T05:25:44;10.32;;;6.90;;
13611;SDS011;6877;51.436;6.774;2022-10-22T05:28:16;32.15;;;9.13;;
13611;SDS011;6877;51.436;6.774;2022-10-22T05:30:53;9.85;;;7.57;;
13611;SDS011;6877;51.436;6.774;2022-10-22T05:33:27;12.80;;;7.57;;
13611;SDS011;6877;51.436;6.774;2022-10-22T05:36:00;15.57;;;8.27;;
13611;SDS011;6877;51.436;6.774;2022-10-22T05:38:29;11.07;;;6.65;;
13611;SDS011;6877;51.436;6.774;2022-10-22T05:41:03;11.90;;;6.90;;
13611;SDS011;6877;51.436;6.774;2022-10-22T05:43:38;15.07;;;7.55;;
13611;SDS011;6877;51.436;6.774;2022-10-22T05:46:14;17.90;;;9.98;;
13611;SDS011;6877;51.436;6.774;2022-10-22T05:48:42;15.60;;;9.20;;
13611;SDS011;6877;51.436;6.774;2022-10-22T05:51:14;15.57;;;8.73;;
13611;SDS011;6877;51.436;6.774;2022-10-22T05:53:49;20.90;;;10.13;;
13611;SDS011;6877;51.436;6.774;2022-10-22T05:56:22;17.45;;;9.40;;
13611;SDS011;6877;51.436;6.774;2022-10-22T05:58:54;17.42;;;9.48;;
13611;SDS011;6877;51.436;6.774;2022-10-22T06:01:27;16.33;;;9.90;;
13611;SDS011;6877;51.436;6.774;2022-10-22T06:04:01;16.92;;;9.15;;
13611;SDS011;6877;51.436;6.774;2022-10-22T06:06:36;20.88;;;10.05;;
13611;SDS011;6877;51.436;6.774;2022-10-22T06:09:08;17.60;;;8.93;;
13611;SDS011;6877;51.436;6.774;2022-10-22T06:11:44;15.75;;;9.52;;
13611;SDS011;6877;51.436;6.774;2022-10-22T06:14:17;19.33;;;9.77;;
13611;SDS011;6877;51.436;6.774;2022-10-22T06:16:50;15.95;;;9.32;;
13611;SDS011;6877;51.436;6.774;2022-10-22T06:19:18;12.63;;;8.80;;
13611;SDS011;6877;51.436;6.774;2022-10-22T06:21:50;14.05;;;9.60;;
13611;SDS011;6877;51.436;6.774;2022-10-22T06:24:17;18.08;;;10.15;;
13611;SDS011;6877;51.436;6.774;2022-10-22T06:26:51;19.60;;;10.20;;
13611;SDS011;6877;51.436;6.774;2022-10-22T06:29:23;20.52;;;11.15;;
13611;SDS011;6877;51.436;6.774;2022-10-22T06:31:54;19.23;;;10.35;;
13611;SDS011;6877;51.436;6.774;2022-10-22T06:34:26;24.70;;;11.70;;
13611;SDS011;6877;51.436;6.774;2022-10-22T06:36:57;22.58;;;11.20;;
13611;SDS011;6877;51.436;6.774;2022-10-22T06:39:24;22.70;;;11.15;;
13611;SDS011;6877;51.436;6.774;2022-10-22T06:41:55;21.05;;;10.63;;
13611;SDS011;6877;51.436;6.774;2022-10-22T06:44:26;22.23;;;11.15;;
13611;SDS011;6877;51.436;6.774;2022-10-22T06:46:58;23.20;;;10.60;;
13611;SDS011;6877;51.436;6.774;2022-10-22T06:49:29;19.23;;;10.45;;
13611;SDS011;6877;51.436;6.774;2022-10-22T06:52:00;20.17;;;11.73;;
13611;SDS011;6877;51.436;6.774;2022-10-22T06:54:32;18.25;;;10.20;;
13611;SDS011;6877;51.436;6.774;2022-10-22T06:57:03;19.92;;;10.10;;
13611;SDS011;6877;51.436;6.774;2022-10-22T06:59:30;21.60;;;11.45;;
13611;SDS011;6877;51.436;6.774;2022-10-22T07:02:02;18.90;;;9.43;;
13611;SDS011;6877;51.436;6.774;2022-10-22T07:04:33;13.60;;;9.18;;
13611;SDS011;6877;51.436;6.774;2022-10-22T07:07:04;11.90;;;8.85;;
13611;SDS011;6877;51.436;6.774;2022-10-22T07:09:36;16.38;;;8.80;;
13611;SDS011;6877;51.436;6.774;2022-10-22T07:12:09;16.48;;;8.02;;
13611;SDS011;6877;51.436;6.774;2022-10-22T07:14:36;11.43;;;6.60;;
13611;SDS011;6877;51.436;6.774;2022-10-22T07:17:02;13.05;;;7.38;;
13611;SDS011;6877;51.436;6.774;2022-10-22T07:19:33;16.27;;;7.47;;
13611;SDS011;6877;51.436;6.774;2022-10-22T07:22:05;17.70;;;7.30;;
13611;SDS011;6877;51.436;6.774;2022-10-22T07:24:37;15.82;;;7.82;;
13611;SDS011;6877;51.436;6.774;2022-10-22T07:27:03;13.57;;;6.53;;
13611;SDS011;6877;51.436;6.774;2022-10-22T07:29:30;14.25;;;6.13;;
13611;SDS011;6877;51.436;6.774;2022-10-22T07:32:01;12.30;;;6.28;;
13611;SDS011;6877;51.436;6.774;2022-10-22T07:34:28;8.35;;;5.28;;
13611;SDS011;6877;51.436;6.774;2022-10-22T07:36:54;10.85;;;5.53;;
13611;SDS011;6877;51.436;6.774;2022-10-22T07:39:27;10.05;;;5.00;;
13611;SDS011;6877;51.436;6.774;2022-10-22T07:41:58;12.35;;;4.75;;
13611;SDS011;6877;51.436;6.774;2022-10-22T07:44:30;9.27;;;4.72;;
13611;SDS011;6877;51.436;6.774;2022-10-22T07:47:01;11.55;;;5.45;;
13611;SDS011;6877;51.436;6.774;2022-10-22T07:49:33;10.75;;;4.85;;
13611;SDS011;6877;51.436;6.774;2022-10-22T07:51:59;11.52;;;4.53;;
13611;SDS011;6877;51.436;6.774;2022-10-22T07:54:30;18.00;;;5.60;;
13611;SDS011;6877;51.436;6.774;2022-10-22T07:57:02;10.80;;;4.18;;
13611;SDS011;6877;51.436;6.774;2022-10-22T07:59:33;11.77;;;4.38;;
13611;SDS011;6877;51.436;6.774;2022-10-22T08:02:05;7.18;;;4.30;;
13611;SDS011;6877;51.436;6.774;2022-10-22T08:04:37;11.85;;;4.90;;
13611;SDS011;6877;51.436;6.774;2022-10-22T08:07:08;13.32;;;6.18;;
13611;SDS011;6877;51.436;6.774;2022-10-22T08:09:40;12.60;;;4.28;;
13611;SDS011;6877;51.436;6.774;2022-10-22T08:12:12;9.07;;;4.22;;
13611;SDS011;6877;51.436;6.774;2022-10-22T08:14:43;12.60;;;3.97;;
13611;SDS011;6877;51.436;6.774;2022-10-22T08:17:09;8.95;;;3.85;;
13611;SDS011;6877;51.436;6.774;2022-10-22T08:19:36;14.10;;;4.57;;
13611;SDS011;6877;51.436;6.774;2022-10-22T08:22:08;14.10;;;3.92;;
13611;SDS011;6877;51.436;6.774;2022-10-22T08:24:40;4.50;;;3.17;;
13611;SDS011;6877;51.436;6.774;2022-10-22T08:27:11;6.40;;;3.60;;
13611;SDS011;6877;51.436;6.774;2022-10-22T08:29:38;13.90;;;3.60;;
13611;SDS011;6877;51.436;6.774;2022-10-22T08:32:09;5.40;;;3.55;;
13611;SDS011;6877;51.436;6.774;2022-10-22T08:34:41;13.77;;;3.25;;
13611;SDS011;6877;51.436;6.774;2022-10-22T08:37:12;10.38;;;3.22;;
13611;SDS011;6877;51.436;6.774;2022-10-22T08:39:44;17.92;;;4.15;;
13611;SDS011;6877;51.436;6.774;2022-10-22T08:45:38;12.65;;;4.22;;
13611;SDS011;6877;51.436;6.774;2022-10-22T08:51:03;13.13;;;4.47;;
13611;SDS011;6877;51.436;6.774;2022-10-22T08:53:40;9.57;;;3.88;;
13611;SDS011;6877;51.436;6.774;2022-10-22T08:56:09;17.40;;;4.05;;
13611;SDS011;6877;51.436;6.774;2022-10-22T09:06:47;10.52;;;4.00;;
13611;SDS011;6877;51.436;6.774;2022-10-22T09:09:19;9.80;;;3.75;;
13611;SDS011;6877;51.436;6.774;2022-10-22T09:11:51;9.60;;;4.00;;
13611;SDS011;6877;51.436;6.774;2022-10-22T09:14:25;6.97;;;3.08;;
13611;SDS011;6877;51.436;6.774;2022-10-22T09:25:24;8.30;;;2.55;;
13611;SDS011;6877;51.436;6.774;2022-10-22T09:27:56;8.48;;;2.60;;
13611;SDS011;6877;51.436;6.774;2022-10-22T09:30:33;6.45;;;2.60;;
13611;SDS011;6877;51.436;6.774;2022-10-22T09:33:10;13.52;;;3.17;;
13611;SDS011;6877;51.436;6.774;2022-10-22T09:38:15;9.50;;;2.95;;
13611;SDS011;6877;51.436;6.774;2022-10-22T09:40:50;9.55;;;2.75;;
13611;SDS011;6877;51.436;6.774;2022-10-22T09:43:24;8.23;;;4.03;;
13611;SDS011;6877;51.436;6.774;2022-10-22T09:45:57;6.05;;;2.60;;
13611;SDS011;6877;51.436;6.774;2022-10-22T09:48:36;8.70;;;2.53;;
13611;SDS011;6877;51.436;6.774;2022-10-22T09:58:57;7.10;;;2.58;;
13611;SDS011;6877;51.436;6.774;2022-10-22T10:01:35;5.25;;;2.28;;
13611;SDS011;6877;51.436;6.774;2022-10-22T10:04:10;5.53;;;2.67;;
13611;SDS011;6877;51.436;6.774;2022-10-22T10:06:43;7.47;;;2.78;;
13611;SDS011;6877;51.436;6.774;2022-10-22T10:09:17;6.00;;;2.88;;
13611;SDS011;6877;51.436;6.774;2022-10-22T10:11:53;5.90;;;2.42;;
13611;SDS011;6877;51.436;6.774;2022-10-22T10:14:38;7.00;;;2.55;;
13611;SDS011;6877;51.436;6.774;2022-10-22T10:17:21;9.00;;;3.17;;
13611;SDS011;6877;51.436;6.774;2022-10-22T10:23:20;11.93;;;2.90;;
13611;SDS011;6877;51.436;6.774;2022-10-22T10:34:41;6.13;;;2.72;;
13611;SDS011;6877;51.436;6.774;2022-10-22T10:43:10;8.50;;;2.30;;
13611;SDS011;6877;51.436;6.774;2022-10-22T10:51:48;7.78;;;2.03;;
13611;SDS011;6877;51.436;6.774;2022-10-22T10:54:42;7.72;;;2.80;;
13611;SDS011;6877;51.436;6.774;2022-10-22T10:59:55;11.23;;;3.20;;
13611;SDS011;6877;51.436;6.774;2022-10-22T11:21:51;11.40;;;1.80;;
13611;SDS011;6877;51.436;6.774;2022-10-22T11:30:18;13.27;;;1.90;;
13611;SDS011;6877;51.436;6.774;2022-10-22T11:32:52;7.00;;;2.47;;
13611;SDS011;6877;51.436;6.774;2022-10-22T11:35:27;5.68;;;2.28;;
13611;SDS011;6877;51.436;6.774;2022-10-22T11:38:03;5.03;;;1.75;;
13611;SDS011;6877;51.436;6.774;2022-10-22T11:40:38;5.00;;;1.92;;
13611;SDS011;6877;51.436;6.774;2022-10-22T11:46:37;6.13;;;1.73;;
13611;SDS011;6877;51.436;6.774;2022-10-22T11:49:18;6.45;;;1.63;;
13611;SDS011;6877;51.436;6.774;2022-10-22T11:52:21;3.33;;;2.00;;
13611;SDS011;6877;51.436;6.774;2022-10-22T11:54:56;7.35;;;2.47;;
13611;SDS011;6877;51.436;6.774;2022-10-22T11:57:35;4.80;;;2.08;;
13611;SDS011;6877;51.436;6.774;2022-10-22T12:00:54;6.70;;;1.83;;
13611;SDS011;6877;51.436;6.774;2022-10-22T12:03:22;16.42;;;2.45;;
13611;SDS011;6877;51.436;6.774;2022-10-22T12:06:16;4.70;;;2.08;;
13611;SDS011;6877;51.436;6.774;2022-10-22T12:08:56;10.30;;;2.72;;
13611;SDS011;6877;51.436;6.774;2022-10-22T12:11:34;7.32;;;2.28;;
13611;SDS011;6877;51.436;6.774;2022-10-22T12:14:15;8.55;;;1.98;;
13611;SDS011;6877;51.436;6.774;2022-10-22T12:19:43;5.70;;;2.35;;
13611;SDS011;6877;51.436;6.774;2022-10-22T12:22:29;5.03;;;1.95;;
13611;SDS011;6877;51.436;6.774;2022-10-22T12:25:08;8.10;;;2.70;;
13611;SDS011;6877;51.436;6.774;2022-10-22T12:27:51;2.80;;;1.85;;
13611;SDS011;6877;51.436;6.774;2022-10-22T12:30:33;5.22;;;1.50;;
13611;SDS011;6877;51.436;6.774;2022-10-22T12:33:06;3.65;;;1.52;;
13611;SDS011;6877;51.436;6.774;2022-10-22T12:35:48;5.72;;;2.03;;
13611;SDS011;6877;51.436;6.774;2022-10-22T12:38:23;4.43;;;2.05;;
13611;SDS011;6877;51.436;6.774;2022-10-22T12:40:56;5.30;;;2.00;;
13611;SDS011;6877;51.436;6.774;2022-10-22T12:43:28;6.57;;;2.00;;
13611;SDS011;6877;51.436;6.774;2022-10-22T12:46:01;6.25;;;2.20;;
13611;SDS011;6877;51.436;6.774;2022-10-22T12:48:34;3.78;;;1.60;;
13611;SDS011;6877;51.436;6.774;2022-10-22T12:51:15;7.15;;;2.65;;
13611;SDS011;6877;51.436;6.774;2022-10-22T12:53:53;5.43;;;2.20;;
13611;SDS011;6877;51.436;6.774;2022-10-22T12:56:27;7.45;;;3.50;;
13611;SDS011;6877;51.436;6.774;2022-10-22T13:02:18;7.57;;;2.20;;
13611;SDS011;6877;51.436;6.774;2022-10-22T13:08:02;4.80;;;2.42;;
13611;SDS011;6877;51.436;6.774;2022-10-22T13:10:33;4.30;;;2.72;;
13611;SDS011;6877;51.436;6.774;2022-10-22T13:13:27;9.32;;;4.00;;
13611;SDS011;6877;51.436;6.774;2022-10-22T13:18:47;5.93;;;2.30;;
13611;SDS011;6877;51.436;6.774;2022-10-22T13:21:31;13.05;;;2.70;;
13611;SDS011;6877;51.436;6.774;2022-10-22T13:24:19;14.88;;;3.05;;
13611;SDS011;6877;51.436;6.774;2022-10-22T13:26:53;5.22;;;2.65;;
13611;SDS011;6877;51.436;6.774;2022-10-22T13:29:24;6.88;;;2.38;;
13611;SDS011;6877;51.436;6.774;2022-10-22T13:31:56;6.65;;;2.83;;
13611;SDS011;6877;51.436;6.774;2022-10-22T13:34:31;7.57;;;2.67;;
13611;SDS011;6877;51.436;6.774;2022-10-22T13:37:04;7.90;;;3.03;;
13611;SDS011;6877;51.436;6.774;2022-10-22T13:39:39;9.23;;;2.95;;
13611;SDS011;6877;51.436;6.774;2022-10-22T13:42:11;9.82;;;2.60;;
13611;SDS011;6877;51.436;6.774;2022-10-22T13:44:43;11.57;;;2.83;;
13611;SDS011;6877;51.436;6.774;2022-10-22T13:47:23;5.63;;;2.78;;
13611;SDS011;6877;51.436;6.774;2022-10-22T13:49:58;5.68;;;2.15;;
13611;SDS011;6877;51.436;6.774;2022-10-22T13:57:44;5.38;;;2.20;;
13611;SDS011;6877;51.436;6.774;2022-10-22T14:00:18;4.22;;;2.75;;
13611;SDS011;6877;51.436;6.774;2022-10-22T14:02:51;7.30;;;3.00;;
13611;SDS011;6877;51.436;6.774;2022-10-22T14:05:24;4.43;;;2.08;;
13611;SDS011;6877;51.436;6.774;2022-10-22T14:07:56;8.65;;;2.80;;
13611;SDS011;6877;51.436;6.774;2022-10-22T14:10:30;8.88;;;2.22;;
13611;SDS011;6877;51.436;6.774;2022-10-22T14:13:01;7.85;;;3.05;;
13611;SDS011;6877;51.436;6.774;2022-10-22T14:15:33;6.93;;;2.65;;
13611;SDS011;6877;51.436;6.774;2022-10-22T14:18:05;6.40;;;3.10;;
13611;SDS011;6877;51.436;6.774;2022-10-22T14:20:39;8.07;;;2.92;;
13611;SDS011;6877;51.436;6.774;2022-10-22T14:23:12;14.65;;;4.40;;
13611;SDS011;6877;51.436;6.774;2022-10-22T14:25:44;10.95;;;4.70;;
13611;SDS011;6877;51.436;6.774;2022-10-22T14:28:16;8.00;;;3.42;;
13611;SDS011;6877;51.436;6.774;2022-10-22T14:30:47;5.22;;;2.53;;
13611;SDS011;6877;51.436;6.774;2022-10-22T14:35:55;7.80;;;2.75;;
13611;SDS011;6877;51.436;6.774;2022-10-22T14:38:27;9.10;;;3.25;;
13611;SDS011;6877;51.436;6.774;2022-10-22T14:40:59;7.05;;;2.42;;
13611;SDS011;6877;51.436;6.774;2022-10-22T14:43:30;6.45;;;2.90;;
13611;SDS011;6877;51.436;6.774;2022-10-22T14:46:01;9.25;;;2.95;;
13611;SDS011;6877;51.436;6.774;2022-10-22T14:48:33;7.05;;;2.00;;
13611;SDS011;6877;51.436;6.774;2022-10-22T14:51:04;5.97;;;2.40;;
13611;SDS011;6877;51.436;6.774;2022-10-22T14:53:36;4.88;;;1.65;;
13611;SDS011;6877;51.436;6.774;2022-10-22T14:56:11;6.78;;;1.67;;
13611;SDS011;6877;51.436;6.774;2022-10-22T14:58:43;7.60;;;2.55;;
13611;SDS011;6877;51.436;6.774;2022-10-22T15:01:15;8.68;;;1.95;;
13611;SDS011;6877;51.436;6.774;2022-10-22T15:03:47;5.50;;;1.70;;
13611;SDS011;6877;51.436;6.774;2022-10-22T15:06:19;7.10;;;2.75;;
13611;SDS011;6877;51.436;6.774;2022-10-22T15:08:50;4.75;;;2.15;;
13611;SDS011;6877;51.436;6.774;2022-10-22T15:11:21;7.20;;;2.33;;
13611;SDS011;6877;51.436;6.774;2022-10-22T15:13:53;9.20;;;2.47;;
13611;SDS011;6877;51.436;6.774;2022-10-22T15:16:19;5.88;;;1.90;;
13611;SDS011;6877;51.436;6.774;2022-10-22T15:18:51;11.43;;;2.50;;
13611;SDS011;6877;51.436;6.774;2022-10-22T15:21:23;5.25;;;2.50;;
13611;SDS011;6877;51.436;6.774;2022-10-22T15:23:54;4.43;;;1.80;;
13611;SDS011;6877;51.436;6.774;2022-10-22T15:26:26;4.50;;;1.90;;
13611;SDS011;6877;51.436;6.774;2022-10-22T15:29:00;6.47;;;2.42;;
13611;SDS011;6877;51.436;6.774;2022-10-22T15:37:02;3.13;;;2.05;;
13611;SDS011;6877;51.436;6.774;2022-10-22T15:39:37;12.50;;;2.10;;
13611;SDS011;6877;51.436;6.774;2022-10-22T15:42:10;5.93;;;2.70;;
13611;SDS011;6877;51.436;6.774;2022-10-22T15:44:42;16.73;;;3.72;;
13611;SDS011;6877;51.436;6.774;2022-10-22T15:47:13;7.97;;;2.50;;
13611;SDS011;6877;51.436;6.774;2022-10-22T15:49:44;5.47;;;2.05;;
13611;SDS011;6877;51.436;6.774;2022-10-22T15:52:16;6.95;;;2.20;;
13611;SDS011;6877;51.436;6.774;2022-10-22T15:54:47;4.47;;;2.08;;
13611;SDS011;6877;51.436;6.774;2022-10-22T15:57:19;5.20;;;2.13;;
13611;SDS011;6877;51.436;6.774;2022-10-22T15:59:50;6.68;;;2.42;;
13611;SDS011;6877;51.436;6.774;2022-10-22T16:02:22;3.65;;;1.90;;
13611;SDS011;6877;51.436;6.774;2022-10-22T16:04:53;5.85;;;2.50;;
13611;SDS011;6877;51.436;6.774;2022-10-22T16:07:25;8.77;;;2.78;;
13611;SDS011;6877;51.436;6.774;2022-10-22T16:09:55;6.97;;;2.67;;
13611;SDS011;6877;51.436;6.774;2022-10-22T16:12:27;6.30;;;2.53;;
13611;SDS011;6877;51.436;6.774;2022-10-22T16:14:58;8.07;;;2.25;;
13611;SDS011;6877;51.436;6.774;2022-10-22T16:17:30;3.10;;;2.13;;
13611;SDS011;6877;51.436;6.774;2022-10-22T16:20:01;7.85;;;2.88;;
13611;SDS011;6877;51.436;6.774;2022-10-22T16:22:32;11.48;;;2.22;;
13611;SDS011;6877;51.436;6.774;2022-10-22T16:25:04;3.28;;;2.38;;
13611;SDS011;6877;51.436;6.774;2022-10-22T16:27:36;7.70;;;2.55;;
13611;SDS011;6877;51.436;6.774;2022-10-22T16:30:09;10.75;;;2.45;;
13611;SDS011;6877;51.436;6.774;2022-10-22T16:32:41;9.85;;;2.50;;
13611;SDS011;6877;51.436;6.774;2022-10-22T16:35:12;6.28;;;2.63;;
13611;SDS011;6877;51.436;6.774;2022-10-22T16:37:44;3.85;;;2.50;;
13611;SDS011;6877;51.436;6.774;2022-10-22T16:40:15;9.35;;;2.53;;
13611;SDS011;6877;51.436;6.774;2022-10-22T16:42:47;3.22;;;2.10;;
13611;SDS011;6877;51.436;6.774;2022-10-22T16:45:19;3.30;;;2.08;;
13611;SDS011;6877;51.436;6.774;2022-10-22T16:47:45;3.22;;;2.30;;
13611;SDS011;6877;51.436;6.774;2022-10-22T16:50:18;3.60;;;2.15;;
13611;SDS011;6877;51.436;6.774;2022-10-22T16:52:49;4.07;;;2.53;;
13611;SDS011;6877;51.436;6.774;2022-10-22T16:55:21;4.45;;;2.72;;
13611;SDS011;6877;51.436;6.774;2022-10-22T16:57:52;5.13;;;2.80;;
13611;SDS011;6877;51.436;6.774;2022-10-22T17:00:24;6.82;;;3.00;;
13611;SDS011;6877;51.436;6.774;2022-10-22T17:02:55;4.38;;;3.10;;
13611;SDS011;6877;51.436;6.774;2022-10-22T17:05:27;4.53;;;2.60;;
13611;SDS011;6877;51.436;6.774;2022-10-22T17:07:58;3.85;;;2.45;;
13611;SDS011;6877;51.436;6.774;2022-10-22T17:10:29;9.10;;;2.83;;
13611;SDS011;6877;51.436;6.774;2022-10-22T17:13:01;5.13;;;3.00;;
13611;SDS011;6877;51.436;6.774;2022-10-22T17:15:32;7.13;;;3.45;;
13611;SDS011;6877;51.436;6.774;2022-10-22T17:18:04;6.22;;;3.17;;
13611;SDS011;6877;51.436;6.774;2022-10-22T17:20:39;3.78;;;2.95;;
13611;SDS011;6877;51.436;6.774;2022-10-22T17:23:12;5.57;;;3.38;;
13611;SDS011;6877;51.436;6.774;2022-10-22T17:25:43;7.82;;;3.10;;
13611;SDS011;6877;51.436;6.774;2022-10-22T17:28:15;6.45;;;3.63;;
13611;SDS011;6877;51.436;6.774;2022-10-22T17:30:46;9.32;;;4.10;;
13611;SDS011;6877;51.436;6.774;2022-10-22T17:33:18;8.77;;;4.30;;
13611;SDS011;6877;51.436;6.774;2022-10-22T17:35:49;5.15;;;3.00;;
13611;SDS011;6877;51.436;6.774;2022-10-22T17:38:22;4.95;;;3.20;;
13611;SDS011;6877;51.436;6.774;2022-10-22T17:40:54;9.48;;;2.80;;
13611;SDS011;6877;51.436;6.774;2022-10-22T17:43:27;4.97;;;2.95;;
13611;SDS011;6877;51.436;6.774;2022-10-22T17:46:02;6.18;;;3.30;;
13611;SDS011;6877;51.436;6.774;2022-10-22T17:48:33;7.57;;;3.78;;
13611;SDS011;6877;51.436;6.774;2022-10-22T17:51:05;7.00;;;3.28;;
13611;SDS011;6877;51.436;6.774;2022-10-22T17:53:40;6.72;;;3.80;;
13611;SDS011;6877;51.436;6.774;2022-10-22T17:56:17;8.48;;;3.25;;
13611;SDS011;6877;51.436;6.774;2022-10-22T17:58:50;7.97;;;3.55;;